sensor_id;sensor_type;location;lat;lon;timestamp;pressure;altitude;pressure_sealevel;temperature;humidity
79230;BME280;68663;49.122;17.544;2023-07-31T00:01:06;99136.19;;;26.17;50.33
79230;BME280;68663;49.122;17.544;2023-07-31T00:03:31;99134.94;;;26.18;50.56
79230;BME280;68663;49.122;17.544;2023-07-31T00:05:57;99134.94;;;26.18;50.44
79230;BME280;68663;49.122;17.544;2023-07-31T00:08:22;99126.44;;;26.18;50.34
79230;BME280;68663;49.122;17.544;2023-07-31T00:10:51;99135.72;;;26.19;50.20
79230;BME280;68663;49.122;17.544;2023-07-31T00:13:17;99124.84;;;26.17;50.19
79230;BME280;68663;49.122;17.544;2023-07-31T00:15:43;99127.00;;;26.13;49.87
79230;BME280;68663;49.122;17.544;2023-07-31T00:18:08;99132.66;;;26.13;49.87
79230;BME280;68663;49.122;17.544;2023-07-31T00:20:34;99131.50;;;26.11;49.62
79230;BME280;68663;49.122;17.544;2023-07-31T00:22:59;99127.88;;;26.10;49.80
79230;BME280;68663;49.122;17.544;2023-07-31T00:25:24;99130.38;;;26.08;49.73
79230;BME280;68663;49.122;17.544;2023-07-31T00:27:50;99138.09;;;26.08;50.04
79230;BME280;68663;49.122;17.544;2023-07-31T00:30:15;99141.72;;;26.08;50.00
79230;BME280;68663;49.122;17.544;2023-07-31T00:32:41;99137.28;;;26.07;50.12
79230;BME280;68663;49.122;17.544;2023-07-31T00:35:07;99138.88;;;26.08;49.92
79230;BME280;68663;49.122;17.544;2023-07-31T00:37:32;99144.53;;;26.08;49.75
79230;BME280;68663;49.122;17.544;2023-07-31T00:39:58;99145.34;;;26.09;49.81
79230;BME280;68663;49.122;17.544;2023-07-31T00:42:24;99141.72;;;26.08;50.34
79230;BME280;68663;49.122;17.544;2023-07-31T00:44:49;99146.94;;;26.10;49.85
79230;BME280;68663;49.122;17.544;2023-07-31T00:47:15;99143.75;;;26.08;49.83
79230;BME280;68663;49.122;17.544;2023-07-31T00:49:41;99148.16;;;26.09;49.89
79230;BME280;68663;49.122;17.544;2023-07-31T00:52:07;99145.34;;;26.09;50.04
79230;BME280;68663;49.122;17.544;2023-07-31T00:54:33;99147.38;;;26.08;49.77
79230;BME280;68663;49.122;17.544;2023-07-31T00:56:59;99149.41;;;26.08;50.11
79230;BME280;68663;49.122;17.544;2023-07-31T00:59:25;99158.72;;;26.08;50.10
79230;BME280;68663;49.122;17.544;2023-07-31T01:01:50;99153.03;;;26.08;50.12
79230;BME280;68663;49.122;17.544;2023-07-31T01:04:17;99151.47;;;26.07;49.95
79230;BME280;68663;49.122;17.544;2023-07-31T01:06:58;99159.94;;;26.07;49.60
79230;BME280;68663;49.122;17.544;2023-07-31T01:12:14;99161.31;;;26.02;49.87
79230;BME280;68663;49.122;17.544;2023-07-31T01:14:39;99158.91;;;26.01;49.47
79230;BME280;68663;49.122;17.544;2023-07-31T01:17:05;99160.94;;;26.00;49.49
79230;BME280;68663;49.122;17.544;2023-07-31T01:19:32;99165.78;;;26.00;49.63
79230;BME280;68663;49.122;17.544;2023-07-31T01:27:34;99165.44;;;25.98;49.37
79230;BME280;68663;49.122;17.544;2023-07-31T01:30:34;99169.88;;;25.99;49.66
79230;BME280;68663;49.122;17.544;2023-07-31T01:33:03;99178.38;;;25.99;49.79
79230;BME280;68663;49.122;17.544;2023-07-31T01:35:36;99175.53;;;25.99;49.74
79230;BME280;68663;49.122;17.544;2023-07-31T01:38:03;99171.91;;;25.98;49.81
79230;BME280;68663;49.122;17.544;2023-07-31T01:40:28;99177.13;;;26.00;49.60
79230;BME280;68663;49.122;17.544;2023-07-31T01:42:54;99173.94;;;25.98;49.18
79230;BME280;68663;49.122;17.544;2023-07-31T01:45:19;99168.28;;;25.98;49.46
79230;BME280;68663;49.122;17.544;2023-07-31T01:47:45;99169.06;;;25.98;49.30
79230;BME280;68663;49.122;17.544;2023-07-31T01:50:10;99171.13;;;25.98;49.30
79230;BME280;68663;49.122;17.544;2023-07-31T01:52:36;99171.13;;;25.98;49.46
79230;BME280;68663;49.122;17.544;2023-07-31T01:55:01;99163.06;;;25.96;49.31
79230;BME280;68663;49.122;17.544;2023-07-31T01:57:27;99158.19;;;25.97;49.00
79230;BME280;68663;49.122;17.544;2023-07-31T01:59:52;99161.47;;;25.95;48.77
79230;BME280;68663;49.122;17.544;2023-07-31T02:02:19;99161.91;;;25.94;48.67
79230;BME280;68663;49.122;17.544;2023-07-31T02:04:45;99167.25;;;25.92;48.77
79230;BME280;68663;49.122;17.544;2023-07-31T02:07:10;99161.56;;;25.92;48.75
79230;BME280;68663;49.122;17.544;2023-07-31T02:09:36;99176.97;;;25.91;48.71
79230;BME280;68663;49.122;17.544;2023-07-31T02:12:02;99170.97;;;25.89;48.47
79230;BME280;68663;49.122;17.544;2023-07-31T02:14:27;99172.22;;;25.88;48.51
79230;BME280;68663;49.122;17.544;2023-07-31T02:16:53;99178.66;;;25.88;48.73
79230;BME280;68663;49.122;17.544;2023-07-31T02:19:18;99169.38;;;25.88;48.74
79230;BME280;68663;49.122;17.544;2023-07-31T02:21:44;99173.81;;;25.89;48.47
79230;BME280;68663;49.122;17.544;2023-07-31T02:24:09;99176.63;;;25.89;48.45
79230;BME280;68663;49.122;17.544;2023-07-31T02:26:35;99175.03;;;25.88;48.34
79230;BME280;68663;49.122;17.544;2023-07-31T02:29:00;99177.44;;;25.89;48.56
79230;BME280;68663;49.122;17.544;2023-07-31T02:31:26;99172.22;;;25.88;48.52
79230;BME280;68663;49.122;17.544;2023-07-31T02:33:51;99186.38;;;25.88;48.40
79230;BME280;68663;49.122;17.544;2023-07-31T02:36:17;99183.53;;;25.88;48.03
79230;BME280;68663;49.122;17.544;2023-07-31T02:38:42;99188.41;;;25.87;48.26
79230;BME280;68663;49.122;17.544;2023-07-31T02:41:08;99193.28;;;25.87;47.63
79230;BME280;68663;49.122;17.544;2023-07-31T02:43:33;99197.34;;;25.86;47.79
79230;BME280;68663;49.122;17.544;2023-07-31T02:45:59;99190.09;;;25.85;47.79
79230;BME280;68663;49.122;17.544;2023-07-31T02:48:24;99206.28;;;25.84;46.93
79230;BME280;68663;49.122;17.544;2023-07-31T02:50:50;99191.78;;;25.82;46.78
79230;BME280;68663;49.122;17.544;2023-07-31T02:53:15;99190.19;;;25.81;46.92
79230;BME280;68663;49.122;17.544;2023-07-31T02:55:41;99197.53;;;25.79;47.10
79230;BME280;68663;49.122;17.544;2023-07-31T02:58:06;99192.34;;;25.77;46.84
79230;BME280;68663;49.122;17.544;2023-07-31T03:00:32;99195.97;;;25.78;46.88
79230;BME280;68663;49.122;17.544;2023-07-31T03:02:57;99200.81;;;25.77;46.78
79230;BME280;68663;49.122;17.544;2023-07-31T03:05:23;99194.81;;;25.75;47.00
79230;BME280;68663;49.122;17.544;2023-07-31T03:07:48;99197.66;;;25.75;46.85
79230;BME280;68663;49.122;17.544;2023-07-31T03:10:14;99195.59;;;25.76;46.95
79230;BME280;68663;49.122;17.544;2023-07-31T03:12:40;99191.19;;;25.75;46.80
79230;BME280;68663;49.122;17.544;2023-07-31T03:15:06;99189.94;;;25.76;47.07
79230;BME280;68663;49.122;17.544;2023-07-31T03:17:32;99188.34;;;25.75;47.07
79230;BME280;68663;49.122;17.544;2023-07-31T03:19:57;99191.19;;;25.75;46.67
79230;BME280;68663;49.122;17.544;2023-07-31T03:22:22;99182.69;;;25.75;46.58
79230;BME280;68663;49.122;17.544;2023-07-31T03:24:48;99192.44;;;25.74;46.49
79230;BME280;68663;49.122;17.544;2023-07-31T03:27:13;99190.84;;;25.73;46.50
79230;BME280;68663;49.122;17.544;2023-07-31T03:29:39;99198.09;;;25.74;46.34
79230;BME280;68663;49.122;17.544;2023-07-31T03:32:04;99205.00;;;25.73;45.93
79230;BME280;68663;49.122;17.544;2023-07-31T03:34:30;99209.06;;;25.71;45.62
79230;BME280;68663;49.122;17.544;2023-07-31T03:36:57;99203.84;;;25.70;45.56
79230;BME280;68663;49.122;17.544;2023-07-31T03:39:23;99204.28;;;25.68;45.88
79230;BME280;68663;49.122;17.544;2023-07-31T03:41:48;99208.38;;;25.67;45.85
79230;BME280;68663;49.122;17.544;2023-07-31T03:44:13;99201.13;;;25.66;45.27
79230;BME280;68663;49.122;17.544;2023-07-31T03:46:39;99193.84;;;25.65;45.70
79230;BME280;68663;49.122;17.544;2023-07-31T03:49:05;99197.91;;;25.64;45.77
79230;BME280;68663;49.122;17.544;2023-07-31T03:51:30;99193.47;;;25.63;45.95
79230;BME280;68663;49.122;17.544;2023-07-31T03:53:55;99191.88;;;25.62;45.92
79230;BME280;68663;49.122;17.544;2023-07-31T03:56:21;99188.25;;;25.62;45.82
79230;BME280;68663;49.122;17.544;2023-07-31T03:58:47;99188.72;;;25.60;45.85
79230;BME280;68663;49.122;17.544;2023-07-31T04:01:12;99198.00;;;25.61;45.79
79230;BME280;68663;49.122;17.544;2023-07-31T04:03:38;99195.59;;;25.59;45.73
79230;BME280;68663;49.122;17.544;2023-07-31T04:06:03;99190.75;;;25.60;45.78
79230;BME280;68663;49.122;17.544;2023-07-31T04:08:29;99207.28;;;25.61;45.78
79230;BME280;68663;49.122;17.544;2023-07-31T04:10:54;99209.31;;;25.61;45.64
79230;BME280;68663;49.122;17.544;2023-07-31T04:13:19;99213.41;;;25.60;46.10
79230;BME280;68663;49.122;17.544;2023-07-31T04:15:51;99207.72;;;25.60;45.69
79230;BME280;68663;49.122;17.544;2023-07-31T04:18:17;99214.19;;;25.60;45.72
79230;BME280;68663;49.122;17.544;2023-07-31T04:20:42;99211.81;;;25.59;46.08
79230;BME280;68663;49.122;17.544;2023-07-31T04:23:07;99216.66;;;25.58;45.53
79230;BME280;68663;49.122;17.544;2023-07-31T04:25:33;99223.13;;;25.59;45.79
79230;BME280;68663;49.122;17.544;2023-07-31T04:28:00;99218.25;;;25.59;45.69
79230;BME280;68663;49.122;17.544;2023-07-31T04:30:25;99216.66;;;25.58;45.89
79230;BME280;68663;49.122;17.544;2023-07-31T04:32:51;99226.41;;;25.57;45.88
79230;BME280;68663;49.122;17.544;2023-07-31T04:35:16;99224.81;;;25.56;46.05
79230;BME280;68663;49.122;17.544;2023-07-31T04:37:42;99225.69;;;25.53;46.21
79230;BME280;68663;49.122;17.544;2023-07-31T04:40:08;99234.63;;;25.52;46.07
79230;BME280;68663;49.122;17.544;2023-07-31T04:42:33;99233.03;;;25.51;46.62
79230;BME280;68663;49.122;17.544;2023-07-31T04:44:59;99236.31;;;25.49;46.80
79230;BME280;68663;49.122;17.544;2023-07-31T04:47:25;99234.19;;;25.53;47.10
79230;BME280;68663;49.122;17.544;2023-07-31T04:49:50;99242.69;;;25.53;46.39
79230;BME280;68663;49.122;17.544;2023-07-31T04:52:16;99242.69;;;25.53;46.63
79230;BME280;68663;49.122;17.544;2023-07-31T04:54:41;99242.69;;;25.53;46.84
79230;BME280;68663;49.122;17.544;2023-07-31T04:57:06;99249.94;;;25.54;46.79
79230;BME280;68663;49.122;17.544;2023-07-31T04:59:32;99244.72;;;25.53;46.73
79230;BME280;68663;49.122;17.544;2023-07-31T05:01:57;99243.47;;;25.54;46.56
79230;BME280;68663;49.122;17.544;2023-07-31T05:04:23;99249.94;;;25.54;46.58
79230;BME280;68663;49.122;17.544;2023-07-31T05:06:48;99249.94;;;25.54;46.52
79230;BME280;68663;49.122;17.544;2023-07-31T05:09:13;99249.13;;;25.54;46.75
79230;BME280;68663;49.122;17.544;2023-07-31T05:11:39;99249.13;;;25.54;46.58
79230;BME280;68663;49.122;17.544;2023-07-31T05:14:05;99256.41;;;25.55;46.70
79230;BME280;68663;49.122;17.544;2023-07-31T05:16:31;99245.88;;;25.55;46.64
79230;BME280;68663;49.122;17.544;2023-07-31T05:18:56;99258.44;;;25.54;46.64
79230;BME280;68663;49.122;17.544;2023-07-31T05:21:22;99255.59;;;25.54;46.55
79230;BME280;68663;49.122;17.544;2023-07-31T05:23:48;99265.69;;;25.55;46.94
79230;BME280;68663;49.122;17.544;2023-07-31T05:26:14;99259.66;;;25.53;46.70
79230;BME280;68663;49.122;17.544;2023-07-31T05:28:39;99258.06;;;25.52;47.11
79230;BME280;68663;49.122;17.544;2023-07-31T05:31:05;99259.31;;;25.51;46.79
79230;BME280;68663;49.122;17.544;2023-07-31T05:33:32;99259.31;;;25.51;46.85
79230;BME280;68663;49.122;17.544;2023-07-31T05:35:57;99256.84;;;25.53;46.92
79230;BME280;68663;49.122;17.544;2023-07-31T05:38:23;99255.59;;;25.54;46.88
79230;BME280;68663;49.122;17.544;2023-07-31T05:40:49;99259.66;;;25.53;46.87
79230;BME280;68663;49.122;17.544;2023-07-31T05:43:14;99262.84;;;25.55;46.82
79230;BME280;68663;49.122;17.544;2023-07-31T05:45:41;99269.31;;;25.56;46.99
79230;BME280;68663;49.122;17.544;2023-07-31T05:48:07;99270.09;;;25.56;46.75
79230;BME280;68663;49.122;17.544;2023-07-31T05:50:32;99273.28;;;25.58;46.87
79230;BME280;68663;49.122;17.544;2023-07-31T05:52:58;99273.28;;;25.58;47.06
79230;BME280;68663;49.122;17.544;2023-07-31T05:55:24;99269.66;;;25.58;46.88
79230;BME280;68663;49.122;17.544;2023-07-31T05:57:51;99278.16;;;25.58;47.29
79230;BME280;68663;49.122;17.544;2023-07-31T06:00:17;99271.69;;;25.57;47.21
79230;BME280;68663;49.122;17.544;2023-07-31T06:02:42;99268.88;;;25.57;46.91
79230;BME280;68663;49.122;17.544;2023-07-31T06:05:08;99273.28;;;25.58;46.99
79230;BME280;68663;49.122;17.544;2023-07-31T06:07:33;99273.28;;;25.58;46.93
79230;BME280;68663;49.122;17.544;2023-07-31T06:09:59;99273.28;;;25.58;47.37
79230;BME280;68663;49.122;17.544;2023-07-31T06:12:33;99270.91;;;25.57;47.09
79230;BME280;68663;49.122;17.544;2023-07-31T06:14:59;99268.50;;;25.55;47.29
79230;BME280;68663;49.122;17.544;2023-07-31T06:17:25;99264.09;;;25.54;46.83
79230;BME280;68663;49.122;17.544;2023-07-31T06:19:51;99265.34;;;25.53;47.46
79230;BME280;68663;49.122;17.544;2023-07-31T06:22:16;99279.47;;;25.53;47.32
79230;BME280;68663;49.122;17.544;2023-07-31T06:24:42;99267.38;;;25.53;47.04
79230;BME280;68663;49.122;17.544;2023-07-31T06:27:07;99275.06;;;25.52;47.11
79230;BME280;68663;49.122;17.544;2023-07-31T06:29:33;99272.31;;;25.49;47.58
79230;BME280;68663;49.122;17.544;2023-07-31T06:31:59;99271.88;;;25.50;47.54
79230;BME280;68663;49.122;17.544;2023-07-31T06:34:24;99272.22;;;25.52;47.77
79230;BME280;68663;49.122;17.544;2023-07-31T06:36:50;99268.16;;;25.53;48.00
79230;BME280;68663;49.122;17.544;2023-07-31T06:39:15;99267.72;;;25.55;48.07
79230;BME280;68663;49.122;17.544;2023-07-31T06:41:42;99267.72;;;25.55;48.38
79230;BME280;68663;49.122;17.544;2023-07-31T06:44:08;99268.50;;;25.55;48.09
79230;BME280;68663;49.122;17.544;2023-07-31T06:46:33;99272.94;;;25.56;48.32
79230;BME280;68663;49.122;17.544;2023-07-31T06:48:59;99277.81;;;25.56;47.87
79230;BME280;68663;49.122;17.544;2023-07-31T06:51:24;99270.09;;;25.56;47.85
79230;BME280;68663;49.122;17.544;2023-07-31T06:53:50;99272.94;;;25.56;47.70
79230;BME280;68663;49.122;17.544;2023-07-31T06:56:15;99274.19;;;25.55;47.29
79230;BME280;68663;49.122;17.544;2023-07-31T06:58:41;99268.50;;;25.55;47.54
79230;BME280;68663;49.122;17.544;2023-07-31T07:01:06;99270.47;;;25.58;47.75
79230;BME280;68663;49.122;17.544;2023-07-31T07:03:32;99273.28;;;25.58;47.78
79230;BME280;68663;49.122;17.544;2023-07-31T07:05:58;99273.28;;;25.58;48.20
79230;BME280;68663;49.122;17.544;2023-07-31T07:08:24;99272.84;;;25.60;47.60
79230;BME280;68663;49.122;17.544;2023-07-31T07:10:49;99270.81;;;25.60;47.51
79230;BME280;68663;49.122;17.544;2023-07-31T07:13:15;99269.22;;;25.59;47.11
79230;BME280;68663;49.122;17.544;2023-07-31T07:15:40;99276.47;;;25.60;46.79
79230;BME280;68663;49.122;17.544;2023-07-31T07:18:06;99284.63;;;25.58;46.21
79230;BME280;68663;49.122;17.544;2023-07-31T07:20:32;99280.53;;;25.59;46.55
79230;BME280;68663;49.122;17.544;2023-07-31T07:22:58;99278.88;;;25.62;46.58
79230;BME280;68663;49.122;17.544;2023-07-31T07:25:23;99284.53;;;25.62;46.26
79230;BME280;68663;49.122;17.544;2023-07-31T07:27:49;99286.91;;;25.63;46.33
79230;BME280;68663;49.122;17.544;2023-07-31T07:30:14;99277.19;;;25.64;46.73
79230;BME280;68663;49.122;17.544;2023-07-31T07:32:40;99284.09;;;25.63;46.11
79230;BME280;68663;49.122;17.544;2023-07-31T07:35:06;99276.81;;;25.62;46.24
79230;BME280;68663;49.122;17.544;2023-07-31T07:37:32;99276.03;;;25.62;45.92
79230;BME280;68663;49.122;17.544;2023-07-31T07:39:57;99276.38;;;25.64;46.00
79230;BME280;68663;49.122;17.544;2023-07-31T07:42:23;99283.28;;;25.63;45.01
79230;BME280;68663;49.122;17.544;2023-07-31T07:44:48;99280.41;;;25.66;45.70
79230;BME280;68663;49.122;17.544;2023-07-31T07:47:14;99278.81;;;25.65;43.54
79230;BME280;68663;49.122;17.544;2023-07-31T07:49:40;99281.63;;;25.65;45.17
79230;BME280;68663;49.122;17.544;2023-07-31T07:52:05;99278.81;;;25.65;45.26
79230;BME280;68663;49.122;17.544;2023-07-31T07:54:31;99275.53;;;25.67;44.72
79230;BME280;68663;49.122;17.544;2023-07-31T07:56:57;99273.84;;;25.69;44.58
79230;BME280;68663;49.122;17.544;2023-07-31T07:59:23;99271.38;;;25.71;44.65
79230;BME280;68663;49.122;17.544;2023-07-31T08:01:48;99266.59;;;25.68;44.52
79230;BME280;68663;49.122;17.544;2023-07-31T08:04:14;99272.97;;;25.73;44.38
79230;BME280;68663;49.122;17.544;2023-07-31T08:06:39;99268.53;;;25.71;44.06
79230;BME280;68663;49.122;17.544;2023-07-31T08:09:05;99261.63;;;25.73;44.24
79230;BME280;68663;49.122;17.544;2023-07-31T08:11:34;99260.03;;;25.71;44.41
79230;BME280;68663;49.122;17.544;2023-07-31T08:14:00;99257.22;;;25.71;43.30
79230;BME280;68663;49.122;17.544;2023-07-31T08:16:25;99261.63;;;25.73;43.82
79230;BME280;68663;49.122;17.544;2023-07-31T08:18:50;99264.03;;;25.74;44.73
79230;BME280;68663;49.122;17.544;2023-07-31T08:21:16;99269.69;;;25.74;44.43
79230;BME280;68663;49.122;17.544;2023-07-31T08:23:41;99268.00;;;25.77;44.41
79230;BME280;68663;49.122;17.544;2023-07-31T08:26:07;99262.69;;;25.79;44.65
79230;BME280;68663;49.122;17.544;2023-07-31T08:28:32;99267.09;;;25.80;44.58
79230;BME280;68663;49.122;17.544;2023-07-31T08:30:58;99261.44;;;25.80;44.43
79230;BME280;68663;49.122;17.544;2023-07-31T08:33:23;99258.63;;;25.80;44.03
79230;BME280;68663;49.122;17.544;2023-07-31T08:35:49;99254.19;;;25.79;43.81
79230;BME280;68663;49.122;17.544;2023-07-31T08:38:14;99262.69;;;25.79;43.46
79230;BME280;68663;49.122;17.544;2023-07-31T08:40:39;99255.78;;;25.80;43.79
79230;BME280;68663;49.122;17.544;2023-07-31T08:43:05;99256.13;;;25.82;43.51
79230;BME280;68663;49.122;17.544;2023-07-31T08:45:31;99256.56;;;25.80;43.99
79230;BME280;68663;49.122;17.544;2023-07-31T08:47:58;99253.31;;;25.82;43.98
79230;BME280;68663;49.122;17.544;2023-07-31T08:50:24;99249.66;;;25.81;43.76
79230;BME280;68663;49.122;17.544;2023-07-31T08:52:51;99245.59;;;25.82;49.24
79230;BME280;68663;49.122;17.544;2023-07-31T08:55:17;99248.34;;;25.86;46.73
79230;BME280;68663;49.122;17.544;2023-07-31T08:57:43;99244.25;;;25.87;46.87
79230;BME280;68663;49.122;17.544;2023-07-31T09:00:10;99239.75;;;25.89;46.36
79230;BME280;68663;49.122;17.544;2023-07-31T09:02:46;99234.53;;;25.88;46.01
79230;BME280;68663;49.122;17.544;2023-07-31T09:05:12;99230.00;;;25.90;45.77
79230;BME280;68663;49.122;17.544;2023-07-31T09:07:38;99236.03;;;25.92;45.80
79230;BME280;68663;49.122;17.544;2023-07-31T09:10:05;99225.94;;;25.91;45.48
79230;BME280;68663;49.122;17.544;2023-07-31T09:12:31;99227.53;;;25.92;45.54
79230;BME280;68663;49.122;17.544;2023-07-31T09:14:59;99219.13;;;25.89;42.18
79230;BME280;68663;49.122;17.544;2023-07-31T09:17:33;99226.28;;;25.93;44.63
79230;BME280;68663;49.122;17.544;2023-07-31T09:22:41;99220.63;;;25.93;42.14
79230;BME280;68663;49.122;17.544;2023-07-31T09:25:23;99219.72;;;25.96;44.01
79230;BME280;68663;49.122;17.544;2023-07-31T09:28:02;99220.50;;;25.97;44.67
79230;BME280;68663;49.122;17.544;2023-07-31T09:30:28;99224.59;;;25.96;44.33
79230;BME280;68663;49.122;17.544;2023-07-31T09:33:02;99223.78;;;25.95;44.31
79230;BME280;68663;49.122;17.544;2023-07-31T09:35:30;99218.56;;;25.94;44.84
79230;BME280;68663;49.122;17.544;2023-07-31T09:38:00;99221.84;;;25.92;43.92
79230;BME280;68663;49.122;17.544;2023-07-31T09:40:30;99218.56;;;25.94;43.66
79230;BME280;68663;49.122;17.544;2023-07-31T09:43:17;99222.22;;;25.94;43.35
79230;BME280;68663;49.122;17.544;2023-07-31T09:45:44;99225.03;;;25.94;44.03
79230;BME280;68663;49.122;17.544;2023-07-31T09:48:18;99213.34;;;25.92;43.26
79230;BME280;68663;49.122;17.544;2023-07-31T09:50:48;99212.56;;;25.92;42.87
79230;BME280;68663;49.122;17.544;2023-07-31T09:53:15;99201.22;;;25.92;42.99
79230;BME280;68663;49.122;17.544;2023-07-31T09:55:41;99202.47;;;25.91;41.26
79230;BME280;68663;49.122;17.544;2023-07-31T09:58:10;99196.47;;;25.89;42.82
79230;BME280;68663;49.122;17.544;2023-07-31T10:00:36;99203.28;;;25.91;43.50
79230;BME280;68663;49.122;17.544;2023-07-31T10:03:06;99189.91;;;25.92;43.43
79230;BME280;68663;49.122;17.544;2023-07-31T10:05:37;99194.78;;;25.91;43.59
79230;BME280;68663;49.122;17.544;2023-07-31T10:08:06;99188.66;;;25.93;44.03
79230;BME280;68663;49.122;17.544;2023-07-31T10:10:35;99182.53;;;25.94;43.91
79230;BME280;68663;49.122;17.544;2023-07-31T10:13:01;99185.81;;;25.93;43.36
79230;BME280;68663;49.122;17.544;2023-07-31T10:15:28;99180.16;;;25.93;43.67
79230;BME280;68663;49.122;17.544;2023-07-31T10:17:54;99170.41;;;25.94;43.81
79230;BME280;68663;49.122;17.544;2023-07-31T10:20:21;99172.47;;;25.93;42.98
79230;BME280;68663;49.122;17.544;2023-07-31T10:22:46;99173.25;;;25.94;43.92
79230;BME280;68663;49.122;17.544;2023-07-31T10:25:15;99173.59;;;25.96;43.41
79230;BME280;68663;49.122;17.544;2023-07-31T10:27:41;99166.34;;;25.95;43.22
79230;BME280;68663;49.122;17.544;2023-07-31T10:30:12;99162.72;;;25.94;42.33
79230;BME280;68663;49.122;17.544;2023-07-31T10:35:16;99157.84;;;25.95;42.79
79230;BME280;68663;49.122;17.544;2023-07-31T10:37:42;99165.56;;;25.94;41.91
79230;BME280;68663;49.122;17.544;2023-07-31T10:40:19;99156.59;;;25.96;42.41
79230;BME280;68663;49.122;17.544;2023-07-31T10:42:48;99157.84;;;25.95;40.99
79230;BME280;68663;49.122;17.544;2023-07-31T10:45:33;99155.38;;;25.97;41.68
79230;BME280;68663;49.122;17.544;2023-07-31T10:48:13;99146.88;;;25.97;41.11
79230;BME280;68663;49.122;17.544;2023-07-31T10:50:47;99142.44;;;25.96;41.04
79230;BME280;68663;49.122;17.544;2023-07-31T10:53:29;99148.44;;;25.98;42.15
79230;BME280;68663;49.122;17.544;2023-07-31T10:56:08;99146.88;;;25.97;38.57
79230;BME280;68663;49.122;17.544;2023-07-31T10:58:34;99142.00;;;25.97;37.25
79230;BME280;68663;49.122;17.544;2023-07-31T11:01:02;99149.25;;;25.98;40.64
79230;BME280;68663;49.122;17.544;2023-07-31T11:03:42;99142.78;;;25.98;39.63
79230;BME280;68663;49.122;17.544;2023-07-31T11:06:08;99130.22;;;25.99;39.63
79230;BME280;68663;49.122;17.544;2023-07-31T11:08:36;99134.63;;;26.00;38.95
79230;BME280;68663;49.122;17.544;2023-07-31T11:11:08;99127.38;;;25.99;38.20
79230;BME280;68663;49.122;17.544;2023-07-31T11:16:10;99125.78;;;25.98;38.15
79230;BME280;68663;49.122;17.544;2023-07-31T11:18:39;99125.78;;;25.98;37.96
79230;BME280;68663;49.122;17.544;2023-07-31T11:21:04;99118.09;;;25.98;38.17
79230;BME280;68663;49.122;17.544;2023-07-31T11:23:30;99113.66;;;25.97;38.72
79230;BME280;68663;49.122;17.544;2023-07-31T11:25:59;99114.47;;;25.98;38.92
79230;BME280;68663;49.122;17.544;2023-07-31T11:28:25;99110.81;;;25.97;38.85
79230;BME280;68663;49.122;17.544;2023-07-31T11:30:50;99114.09;;;25.96;39.12
79230;BME280;68663;49.122;17.544;2023-07-31T11:33:16;99118.53;;;25.97;39.00
79230;BME280;68663;49.122;17.544;2023-07-31T11:35:45;99114.47;;;25.98;39.10
79230;BME280;68663;49.122;17.544;2023-07-31T11:38:12;99099.50;;;25.97;39.97
79230;BME280;68663;49.122;17.544;2023-07-31T11:40:45;99113.22;;;25.99;39.79
79230;BME280;68663;49.122;17.544;2023-07-31T11:43:11;99101.53;;;25.97;37.13
79230;BME280;68663;49.122;17.544;2023-07-31T11:45:41;99106.84;;;25.95;38.50
79230;BME280;68663;49.122;17.544;2023-07-31T11:48:07;99103.13;;;25.98;38.89
79230;BME280;68663;49.122;17.544;2023-07-31T11:50:33;99099.06;;;25.99;39.21
79230;BME280;68663;49.122;17.544;2023-07-31T11:53:07;99100.75;;;25.96;38.70
79230;BME280;68663;49.122;17.544;2023-07-31T11:55:34;99100.28;;;25.98;38.94
79230;BME280;68663;49.122;17.544;2023-07-31T11:58:00;99096.22;;;25.99;40.11
79230;BME280;68663;49.122;17.544;2023-07-31T12:00:27;99086.91;;;25.98;40.70
79230;BME280;68663;49.122;17.544;2023-07-31T12:02:53;99087.28;;;26.00;40.72
79230;BME280;68663;49.122;17.544;2023-07-31T12:05:19;99081.19;;;26.02;40.45
79230;BME280;68663;49.122;17.544;2023-07-31T12:07:48;99079.22;;;25.99;38.90
79230;BME280;68663;49.122;17.544;2023-07-31T12:10:31;99073.56;;;25.99;39.54
79230;BME280;68663;49.122;17.544;2023-07-31T12:13:04;99061.44;;;25.98;39.41
79230;BME280;68663;49.122;17.544;2023-07-31T12:15:37;99058.59;;;25.98;39.33
79230;BME280;68663;49.122;17.544;2023-07-31T12:18:18;99053.72;;;25.99;39.60
79230;BME280;68663;49.122;17.544;2023-07-31T12:20:46;99057.00;;;25.97;39.49
79230;BME280;68663;49.122;17.544;2023-07-31T12:23:20;99053.38;;;25.97;39.97
79230;BME280;68663;49.122;17.544;2023-07-31T12:26:08;99053.03;;;25.95;40.28
79230;BME280;68663;49.122;17.544;2023-07-31T12:28:40;99033.56;;;25.97;40.09
79230;BME280;68663;49.122;17.544;2023-07-31T12:31:08;99033.56;;;25.97;39.81
79230;BME280;68663;49.122;17.544;2023-07-31T12:33:35;99031.50;;;25.97;40.29
79230;BME280;68663;49.122;17.544;2023-07-31T12:36:03;99033.09;;;25.98;40.32
79230;BME280;68663;49.122;17.544;2023-07-31T12:38:30;99029.47;;;25.98;39.20
79230;BME280;68663;49.122;17.544;2023-07-31T12:40:55;99031.06;;;25.99;39.95
79230;BME280;68663;49.122;17.544;2023-07-31T12:43:21;99032.31;;;25.98;39.39
79230;BME280;68663;49.122;17.544;2023-07-31T12:45:46;99026.19;;;25.99;40.62
79230;BME280;68663;49.122;17.544;2023-07-31T12:48:12;99019.72;;;25.99;40.31
79230;BME280;68663;49.122;17.544;2023-07-31T12:50:38;99010.88;;;25.97;37.54
79230;BME280;68663;49.122;17.544;2023-07-31T12:53:04;98995.81;;;26.00;40.42
79230;BME280;68663;49.122;17.544;2023-07-31T12:55:30;98996.63;;;26.00;39.61
79230;BME280;68663;49.122;17.544;2023-07-31T12:57:56;98991.41;;;25.99;38.71
79230;BME280;68663;49.122;17.544;2023-07-31T13:00:22;98990.53;;;26.02;40.37
79230;BME280;68663;49.122;17.544;2023-07-31T13:02:47;98984.06;;;26.01;40.76
79230;BME280;68663;49.122;17.544;2023-07-31T13:05:13;98976.78;;;26.00;40.70